createdAt,value
2023-01-08T00:01:09.178Z,84.46
2023-01-08T00:03:37.549Z,84.18
2023-01-08T00:06:07.289Z,84.52
2023-01-08T00:08:34.126Z,84.23
2023-01-08T00:11:00.839Z,84.37
2023-01-08T00:13:27.910Z,83.52
2023-01-08T00:15:54.820Z,83.66
2023-01-08T00:18:21.817Z,84.00
2023-01-08T00:20:48.444Z,84.05
2023-01-08T00:23:17.051Z,84.13
2023-01-08T00:25:43.581Z,83.91
2023-01-08T00:28:10.255Z,84.37
2023-01-08T00:30:37.621Z,84.67
2023-01-08T00:33:04.389Z,85.84
2023-01-08T00:35:31.006Z,85.71
2023-01-08T00:37:57.572Z,85.10
2023-01-08T00:40:24.169Z,84.78
2023-01-08T00:42:50.751Z,85.10
2023-01-08T00:45:17.239Z,84.93
2023-01-08T00:47:43.878Z,85.95
2023-01-08T00:50:10.886Z,85.49
2023-01-08T00:52:37.623Z,85.36
2023-01-08T00:55:04.829Z,85.86
2023-01-08T00:57:39.304Z,85.01
2023-01-08T01:00:11.672Z,85.41
2023-01-08T01:02:39.397Z,85.01
2023-01-08T01:05:06.524Z,85.20
2023-01-08T01:07:34.297Z,85.78
2023-01-08T01:10:01.006Z,85.59
2023-01-08T01:12:28.232Z,85.51
2023-01-08T01:14:54.766Z,84.89
2023-01-08T01:17:21.311Z,84.77
2023-01-08T01:19:47.836Z,85.51
2023-01-08T01:22:14.412Z,84.88
2023-01-08T01:24:40.964Z,84.46
2023-01-08T01:27:07.485Z,84.48
2023-01-08T01:29:34.029Z,84.52
2023-01-08T01:32:00.574Z,85.09
2023-01-08T01:34:27.132Z,84.83
2023-01-08T01:36:53.698Z,85.10
2023-01-08T01:39:20.375Z,85.17
2023-01-08T01:41:47.486Z,85.08
2023-01-08T01:44:40.139Z,85.16
2023-01-08T01:47:22.940Z,85.37
2023-01-08T01:50:34.154Z,84.90
2023-01-08T01:53:03.212Z,85.48
2023-01-08T01:55:31.725Z,86.35
2023-01-08T01:58:04.824Z,86.93
2023-01-08T02:00:33.417Z,85.71
2023-01-08T02:03:00.217Z,86.26
2023-01-08T02:05:36.392Z,85.86
2023-01-08T02:08:09.442Z,86.65
2023-01-08T02:10:46.150Z,86.09
2023-01-08T02:13:26.120Z,86.27
2023-01-08T02:16:18.869Z,85.87
2023-01-08T02:18:54.330Z,86.26
2023-01-08T02:21:55.870Z,85.79
2023-01-08T02:25:21.736Z,86.39
2023-01-08T02:27:51.283Z,86.58
2023-01-08T02:30:20.778Z,85.52
2023-01-08T02:32:47.338Z,86.01
2023-01-08T02:35:13.939Z,86.51
2023-01-08T02:37:41.029Z,86.48
2023-01-08T02:40:26.063Z,86.06
2023-01-08T02:42:59.114Z,86.23
2023-01-08T02:45:41.116Z,85.28
2023-01-08T02:48:26.351Z,86.26
2023-01-08T02:50:55.607Z,86.21
2023-01-08T02:53:28.738Z,86.62
2023-01-08T02:55:59.790Z,86.84
2023-01-08T02:58:29.597Z,86.89
2023-01-08T03:00:57.031Z,87.33
2023-01-08T03:03:28.232Z,87.08
2023-01-08T03:06:17.574Z,86.64
2023-01-08T03:08:47.710Z,86.55
2023-01-08T03:11:17.448Z,87.51
2023-01-08T03:14:04.622Z,87.01
2023-01-08T03:16:34.862Z,86.72
2023-01-08T03:19:09.664Z,86.68
2023-01-08T03:21:37.845Z,86.38
2023-01-08T03:24:05.164Z,86.81
2023-01-08T03:26:32.939Z,86.46
2023-01-08T03:29:01.344Z,86.24
2023-01-08T03:31:30.199Z,86.55
2023-01-08T03:33:58.170Z,85.55
2023-01-08T03:36:27.785Z,85.60
2023-01-08T03:39:01.438Z,85.15
2023-01-08T03:41:31.576Z,85.62
2023-01-08T03:43:58.306Z,85.13
2023-01-08T03:46:32.380Z,86.06
2023-01-08T03:49:00.430Z,85.98
2023-01-08T03:51:27.342Z,85.44
2023-01-08T03:53:58.508Z,85.03
2023-01-08T03:56:25.060Z,85.51
2023-01-08T03:58:51.579Z,84.92
2023-01-08T04:01:18.181Z,84.51
2023-01-08T04:03:44.810Z,85.05
2023-01-08T04:06:11.431Z,84.49
2023-01-08T04:08:37.983Z,83.90
2023-01-08T04:11:04.568Z,83.90
2023-01-08T04:13:31.080Z,84.24
2023-01-08T04:15:58.332Z,84.01
2023-01-08T04:18:24.940Z,83.95
2023-01-08T04:20:51.462Z,84.51
2023-01-08T04:23:18.069Z,84.30
2023-01-08T04:25:44.623Z,84.09
2023-01-08T04:28:11.161Z,83.81
2023-01-08T04:30:37.754Z,84.48
2023-01-08T04:33:04.346Z,84.91
2023-01-08T04:35:30.935Z,84.54
2023-01-08T04:37:57.489Z,84.81
2023-01-08T04:40:24.035Z,85.13
2023-01-08T04:42:50.581Z,84.74
2023-01-08T04:45:18.121Z,85.12
2023-01-08T04:47:44.833Z,84.93
2023-01-08T04:50:11.364Z,85.44
2023-01-08T04:52:38.200Z,85.62
2023-01-08T04:55:05.228Z,84.71
2023-01-08T04:57:31.749Z,85.03
2023-01-08T04:59:58.281Z,84.50
2023-01-08T05:02:24.966Z,84.34
2023-01-08T05:04:51.623Z,84.67
2023-01-08T05:07:18.210Z,84.31
2023-01-08T05:09:44.723Z,84.84
2023-01-08T05:12:11.241Z,84.37
2023-01-08T05:14:37.726Z,84.30
2023-01-08T05:17:04.321Z,84.42
2023-01-08T05:19:30.887Z,85.26
2023-01-08T05:21:58.113Z,85.35
2023-01-08T05:24:24.632Z,85.62
2023-01-08T05:26:51.207Z,85.64
2023-01-08T05:29:17.771Z,86.28
2023-01-08T05:31:45.599Z,85.85
2023-01-08T05:34:12.194Z,85.56
2023-01-08T05:36:38.797Z,85.49
2023-01-08T05:39:05.368Z,85.39
2023-01-08T05:41:31.967Z,84.93
2023-01-08T05:43:58.556Z,85.21
2023-01-08T05:46:25.104Z,85.23
2023-01-08T05:48:51.692Z,85.33
2023-01-08T05:51:18.356Z,85.01
2023-01-08T05:53:44.921Z,85.84
2023-01-08T05:56:12.570Z,85.47
2023-01-08T05:58:39.164Z,85.23
2023-01-08T06:01:08.973Z,85.94
2023-01-08T06:03:35.631Z,85.37
2023-01-08T06:06:03.906Z,84.76
2023-01-08T06:08:31.352Z,85.32
2023-01-08T06:11:02.943Z,84.84
2023-01-08T06:13:29.478Z,85.08
2023-01-08T06:15:59.633Z,85.41
2023-01-08T06:18:27.505Z,85.12
2023-01-08T06:20:54.088Z,84.52
2023-01-08T06:23:20.672Z,84.70
2023-01-08T06:25:53.881Z,84.88
2023-01-08T06:28:20.433Z,84.44
2023-01-08T06:30:47.123Z,84.23
2023-01-08T06:33:13.681Z,84.05
2023-01-08T06:35:40.259Z,84.36
2023-01-08T06:38:06.838Z,84.30
2023-01-08T06:40:33.393Z,84.15
2023-01-08T06:43:04.229Z,84.44
2023-01-08T06:45:31.627Z,84.20
2023-01-08T06:48:02.569Z,84.05
2023-01-08T06:50:29.735Z,83.86
2023-01-08T06:52:56.820Z,84.26
2023-01-08T06:55:24.995Z,83.87
2023-01-08T06:57:58.706Z,83.60
2023-01-08T07:00:27.349Z,83.04
2023-01-08T07:02:54.874Z,83.22
2023-01-08T07:05:22.369Z,83.04
2023-01-08T07:07:49.401Z,82.11
2023-01-08T07:10:17.008Z,82.71
2023-01-08T07:12:45.093Z,81.69
2023-01-08T07:15:11.876Z,82.25
2023-01-08T07:17:38.393Z,82.14
2023-01-08T07:20:05.635Z,82.29
2023-01-08T07:22:32.221Z,82.96
2023-01-08T07:24:58.748Z,82.45
2023-01-08T07:27:25.248Z,82.53
2023-01-08T07:29:51.765Z,82.52
2023-01-08T07:32:18.597Z,82.36
2023-01-08T07:34:45.137Z,82.63
2023-01-08T07:37:11.799Z,81.96
2023-01-08T07:39:38.340Z,82.03
2023-01-08T07:42:04.902Z,81.58
2023-01-08T07:44:31.495Z,81.66
2023-01-08T07:46:58.037Z,81.70
2023-01-08T07:49:24.583Z,81.39
2023-01-08T07:51:51.108Z,81.93
2023-01-08T07:54:17.883Z,81.30
2023-01-08T07:56:44.422Z,81.05
2023-01-08T07:59:11.017Z,81.14
2023-01-08T08:01:37.652Z,81.79
2023-01-08T08:04:04.358Z,81.86
2023-01-08T08:06:31.203Z,81.43
2023-01-08T08:08:59.918Z,80.79
2023-01-08T08:11:26.574Z,81.30
2023-01-08T08:13:54.701Z,80.67
2023-01-08T08:16:22.577Z,80.99
2023-01-08T08:18:49.181Z,81.63
2023-01-08T08:21:15.706Z,81.32
2023-01-08T08:23:42.343Z,80.89
2023-01-08T08:26:08.935Z,80.74
2023-01-08T08:28:35.548Z,81.33
2023-01-08T08:31:02.240Z,80.56
2023-01-08T08:33:28.951Z,80.65
2023-01-08T08:35:55.526Z,80.50
2023-01-08T08:38:23.974Z,80.22
2023-01-08T08:40:50.921Z,79.74
2023-01-08T08:43:17.539Z,80.01
2023-01-08T08:45:44.471Z,79.74
2023-01-08T08:48:11.425Z,80.44
2023-01-08T08:50:38.700Z,79.94
2023-01-08T08:53:06.445Z,79.83
2023-01-08T08:55:34.020Z,79.53
2023-01-08T08:58:11.065Z,79.43
2023-01-08T09:00:41.976Z,79.92
2023-01-08T09:03:14.022Z,78.95
2023-01-08T09:05:41.837Z,79.33
2023-01-08T09:08:09.044Z,78.98
2023-01-08T09:10:38.231Z,78.83
2023-01-08T09:13:04.923Z,79.84
2023-01-08T09:15:31.549Z,78.88
2023-01-08T09:17:58.406Z,78.69
2023-01-08T09:20:26.582Z,79.24
2023-01-08T09:22:53.228Z,79.29
2023-01-08T09:25:19.843Z,78.64
2023-01-08T09:27:46.502Z,78.46
2023-01-08T09:30:13.215Z,78.42
2023-01-08T09:32:39.850Z,78.90
2023-01-08T09:35:06.651Z,77.82
2023-01-08T09:37:33.252Z,77.98
2023-01-08T09:40:02.555Z,77.73
2023-01-08T09:42:31.006Z,77.91
2023-01-08T09:45:00.240Z,77.80
2023-01-08T09:47:38.832Z,77.58
2023-01-08T09:50:11.493Z,77.67
2023-01-08T09:52:38.653Z,77.19
2023-01-08T09:55:16.248Z,77.15
2023-01-08T09:57:44.603Z,77.13
2023-01-08T10:00:15.766Z,76.83
2023-01-08T10:02:42.945Z,77.24
2023-01-08T10:05:15.972Z,77.66
2023-01-08T10:07:43.031Z,76.73
2023-01-08T10:10:31.904Z,76.23
2023-01-08T10:12:59.200Z,75.90
2023-01-08T10:15:26.348Z,75.10
2023-01-08T10:18:10.653Z,74.80
2023-01-08T10:20:39.267Z,75.05
2023-01-08T10:23:15.095Z,75.03
2023-01-08T10:25:49.550Z,75.05
2023-01-08T10:28:39.884Z,75.01
2023-01-08T10:31:11.483Z,75.25
2023-01-08T10:33:43.843Z,76.52
2023-01-08T10:36:22.876Z,76.62
2023-01-08T10:38:59.498Z,75.68
2023-01-08T10:41:27.188Z,75.68
2023-01-08T10:44:07.456Z,75.32
2023-01-08T10:46:42.823Z,75.20
2023-01-08T10:49:22.951Z,75.84
2023-01-08T10:51:51.946Z,75.11
2023-01-08T10:54:41.233Z,74.71
2023-01-08T10:57:30.942Z,75.20
2023-01-08T10:59:57.483Z,74.82
2023-01-08T11:02:38.885Z,74.56
2023-01-08T11:05:07.977Z,74.53
2023-01-08T11:07:35.426Z,74.72
2023-01-08T11:10:04.863Z,75.42
2023-01-08T11:12:41.745Z,74.59
2023-01-08T11:15:29.183Z,74.47
2023-01-08T11:18:04.816Z,75.55
2023-01-08T11:20:31.808Z,75.25
2023-01-08T11:23:28.358Z,74.39
2023-01-08T11:26:06.295Z,74.22
2023-01-08T11:28:56.218Z,73.92
2023-01-08T11:31:33.634Z,74.09
2023-01-08T11:34:10.996Z,74.89
2023-01-08T11:36:44.469Z,75.05
2023-01-08T11:39:10.991Z,74.04
2023-01-08T11:41:40.364Z,74.42
2023-01-08T11:44:37.389Z,74.35
2023-01-08T11:47:22.193Z,74.91
2023-01-08T11:50:33.912Z,75.02
2023-01-08T11:53:28.339Z,76.76
2023-01-08T11:56:16.597Z,75.90
2023-01-08T11:58:59.232Z,75.46
2023-01-08T12:01:33.537Z,75.30
2023-01-08T12:04:21.577Z,75.02
2023-01-08T12:06:52.035Z,75.18
2023-01-08T12:09:21.856Z,75.32
2023-01-08T12:11:50.960Z,74.00
2023-01-08T12:14:38.980Z,73.93
2023-01-08T12:17:25.020Z,73.04
2023-01-08T12:20:19.649Z,72.38
2023-01-08T12:23:14.064Z,72.66
2023-01-08T12:25:53.135Z,72.76
2023-01-08T12:28:22.827Z,73.72
2023-01-08T12:31:13.553Z,73.12
2023-01-08T12:33:43.518Z,73.07
2023-01-08T12:36:16.163Z,72.29
2023-01-08T12:38:44.800Z,72.05
2023-01-08T12:41:13.912Z,72.15
2023-01-08T12:43:49.472Z,72.26
2023-01-08T12:46:17.081Z,72.69
2023-01-08T12:48:46.646Z,72.25
2023-01-08T12:51:25.415Z,71.05
2023-01-08T12:54:04.045Z,71.29
2023-01-08T12:56:39.333Z,71.55
2023-01-08T12:59:13.396Z,72.50
2023-01-08T13:02:07.539Z,71.76
2023-01-08T13:04:44.134Z,71.23
2023-01-08T13:07:21.285Z,70.64
2023-01-08T13:10:01.796Z,70.69
2023-01-08T13:12:36.524Z,71.06
2023-01-08T13:15:04.509Z,70.71
2023-01-08T13:17:31.152Z,70.95
2023-01-08T13:20:04.012Z,71.96
2023-01-08T13:22:35.905Z,72.68
2023-01-08T13:25:31.267Z,72.91
2023-01-08T13:27:58.645Z,72.03
2023-01-08T13:30:34.280Z,71.45
2023-01-08T13:33:01.637Z,71.77
2023-01-08T13:35:31.356Z,72.17
2023-01-08T13:38:10.286Z,71.89
2023-01-08T13:40:53.543Z,72.03
2023-01-08T13:43:31.181Z,72.54
2023-01-08T13:46:00.932Z,73.18
2023-01-08T13:48:37.259Z,72.78
2023-01-08T13:51:04.211Z,73.07
2023-01-08T13:53:31.716Z,73.10
2023-01-08T13:56:01.357Z,73.63
2023-01-08T13:58:32.427Z,73.40
2023-01-08T14:01:01.256Z,73.73
2023-01-08T14:03:35.559Z,73.95
2023-01-08T14:06:13.561Z,75.54
2023-01-08T14:08:56.745Z,76.47
2023-01-08T14:11:29.031Z,76.76
2023-01-08T14:13:56.698Z,77.43
2023-01-08T14:16:23.698Z,77.69
2023-01-08T14:18:51.910Z,78.43
2023-01-08T14:21:23.162Z,78.34
2023-01-08T14:23:51.151Z,78.64
2023-01-08T14:26:29.569Z,79.23
2023-01-08T14:28:56.695Z,80.32
2023-01-08T14:31:26.609Z,79.08
2023-01-08T14:33:55.420Z,80.31
2023-01-08T14:36:22.816Z,80.60
2023-01-08T14:38:52.777Z,80.53
2023-01-08T14:41:55.266Z,81.98
2023-01-08T14:44:36.224Z,81.85
2023-01-08T14:47:06.055Z,82.01
2023-01-08T14:49:43.210Z,82.22
2023-01-08T14:52:12.781Z,83.27
2023-01-08T14:54:39.671Z,82.54
2023-01-08T14:57:06.456Z,82.51
2023-01-08T14:59:37.837Z,83.50
2023-01-08T15:02:06.902Z,83.21
2023-01-08T15:04:33.689Z,83.01
2023-01-08T15:07:08.978Z,82.92
2023-01-08T15:09:36.466Z,83.88
2023-01-08T15:12:05.851Z,83.35
2023-01-08T15:14:37.037Z,82.97
2023-01-08T15:17:15.879Z,83.58
2023-01-08T15:19:49.426Z,83.94
2023-01-08T15:22:20.304Z,83.54
2023-01-08T15:25:06.035Z,82.97
2023-01-08T15:27:36.868Z,82.63
2023-01-08T15:30:05.407Z,83.03
2023-01-08T15:32:36.927Z,83.07
2023-01-08T15:35:17.783Z,82.10
2023-01-08T15:37:44.647Z,81.33
2023-01-08T15:40:12.371Z,80.80
2023-01-08T15:42:57.373Z,81.54
2023-01-08T15:45:28.693Z,80.97
2023-01-08T15:47:55.589Z,81.02
2023-01-08T15:50:23.908Z,80.71
2023-01-08T15:52:50.528Z,80.84
2023-01-08T15:55:19.256Z,80.86
2023-01-08T15:57:45.854Z,80.83
2023-01-08T16:00:14.397Z,80.69
2023-01-08T16:02:46.857Z,80.84
2023-01-08T16:05:14.663Z,80.26
2023-01-08T16:07:41.214Z,79.96
2023-01-08T16:10:09.084Z,80.54
2023-01-08T16:12:36.326Z,79.58
2023-01-08T16:15:02.907Z,80.33
2023-01-08T16:17:30.140Z,79.34
2023-01-08T16:19:56.685Z,79.92
2023-01-08T16:22:23.226Z,79.33
2023-01-08T16:24:49.747Z,79.76
2023-01-08T16:27:16.310Z,80.16
2023-01-08T16:29:42.879Z,80.06
2023-01-08T16:32:09.681Z,80.01
2023-01-08T16:34:36.639Z,79.57
2023-01-08T16:37:03.205Z,79.73
2023-01-08T16:39:32.370Z,79.35
2023-01-08T16:41:58.979Z,78.50
2023-01-08T16:44:30.063Z,78.96
2023-01-08T16:46:56.703Z,79.28
2023-01-08T16:49:23.285Z,80.00
2023-01-08T16:51:49.966Z,79.29
2023-01-08T16:54:16.924Z,79.66
2023-01-08T16:56:43.677Z,79.44
2023-01-08T16:59:22.378Z,79.90
2023-01-08T17:01:50.228Z,79.46
2023-01-08T17:04:16.786Z,79.69
2023-01-08T17:06:43.453Z,79.23
2023-01-08T17:09:11.617Z,80.51
2023-01-08T17:11:39.012Z,80.64
2023-01-08T17:14:05.620Z,79.82
2023-01-08T17:16:35.016Z,80.35
2023-01-08T17:19:01.599Z,79.98
2023-01-08T17:21:28.118Z,79.52
2023-01-08T17:23:54.627Z,78.62
2023-01-08T17:26:21.273Z,79.63
2023-01-08T17:28:47.826Z,79.10
2023-01-08T17:31:20.435Z,80.03
2023-01-08T17:33:50.883Z,79.08
2023-01-08T17:36:20.061Z,79.39
2023-01-08T17:38:47.418Z,79.39
2023-01-08T17:41:37.031Z,78.96
2023-01-08T17:44:06.909Z,79.38
2023-01-08T17:46:42.119Z,79.63
2023-01-08T17:49:11.156Z,80.22
2023-01-08T17:51:38.672Z,80.67
2023-01-08T17:54:05.259Z,80.10
2023-01-08T17:56:31.814Z,80.40
2023-01-08T17:58:58.365Z,80.69
2023-01-08T18:01:24.977Z,80.36
2023-01-08T18:03:52.297Z,80.53
2023-01-08T18:06:18.821Z,81.35
2023-01-08T18:08:45.386Z,81.25
2023-01-08T18:11:11.975Z,82.34
2023-01-08T18:13:41.558Z,82.34
2023-01-08T18:16:10.690Z,82.35
2023-01-08T18:18:38.533Z,82.38
2023-01-08T18:21:09.026Z,82.92
2023-01-08T18:23:35.573Z,82.95
2023-01-08T18:26:12.120Z,83.13
2023-01-08T18:28:39.048Z,83.39
2023-01-08T18:31:06.900Z,84.06
2023-01-08T18:33:33.682Z,84.17
2023-01-08T18:36:03.042Z,84.03
2023-01-08T18:38:29.609Z,84.68
2023-01-08T18:40:58.486Z,84.71
2023-01-08T18:43:26.870Z,84.49
2023-01-08T18:45:58.988Z,85.26
2023-01-08T18:48:25.557Z,85.29
2023-01-08T18:50:52.033Z,85.60
2023-01-08T18:53:18.620Z,85.06
2023-01-08T18:55:45.144Z,85.69
2023-01-08T18:58:11.732Z,84.84
2023-01-08T19:00:38.455Z,85.70
2023-01-08T19:03:09.064Z,85.52
2023-01-08T19:05:42.654Z,85.86
2023-01-08T19:08:09.541Z,85.90
2023-01-08T19:10:39.871Z,85.69
2023-01-08T19:13:06.697Z,85.50
2023-01-08T19:15:33.361Z,85.49
2023-01-08T19:18:00.260Z,85.66
2023-01-08T19:20:27.963Z,85.80
2023-01-08T19:22:54.711Z,85.33
2023-01-08T19:25:21.641Z,85.58
2023-01-08T19:27:48.203Z,85.28
2023-01-08T19:30:14.895Z,85.42
2023-01-08T19:32:41.746Z,85.19
2023-01-08T19:35:08.709Z,85.18
2023-01-08T19:37:35.232Z,84.86
2023-01-08T19:40:06.221Z,84.94
2023-01-08T19:42:52.761Z,85.17
2023-01-08T19:45:19.361Z,85.59
2023-01-08T19:47:45.957Z,84.73
2023-01-08T19:50:12.741Z,84.48
2023-01-08T19:52:39.339Z,84.50
2023-01-08T19:55:06.171Z,84.72
2023-01-08T19:57:32.818Z,84.44
2023-01-08T19:59:59.332Z,85.06
2023-01-08T20:02:26.139Z,84.96
2023-01-08T20:04:52.816Z,85.42
2023-01-08T20:07:19.369Z,85.48
2023-01-08T20:09:45.901Z,85.46
2023-01-08T20:12:13.832Z,85.58
2023-01-08T20:14:40.463Z,84.53
2023-01-08T20:17:07.001Z,84.10
2023-01-08T20:19:34.455Z,83.74
2023-01-08T20:22:01.063Z,83.80
2023-01-08T20:24:28.943Z,84.74
2023-01-08T20:26:55.678Z,84.47
2023-01-08T20:29:22.598Z,84.69
2023-01-08T20:31:56.577Z,84.76
2023-01-08T20:34:23.963Z,84.89
2023-01-08T20:36:50.592Z,84.97
2023-01-08T20:39:17.756Z,85.13
2023-01-08T20:41:50.381Z,85.21
2023-01-08T20:44:30.707Z,85.35
2023-01-08T20:46:57.302Z,85.58
2023-01-08T20:49:26.496Z,85.79
2023-01-08T20:51:59.247Z,85.76
2023-01-08T20:54:27.300Z,85.72
2023-01-08T20:56:56.246Z,85.63
2023-01-08T20:59:26.377Z,86.18
2023-01-08T21:01:53.717Z,85.85
2023-01-08T21:04:21.007Z,85.38
2023-01-08T21:06:47.667Z,85.73
2023-01-08T21:09:16.517Z,85.45
2023-01-08T21:11:43.173Z,85.60
2023-01-08T21:14:10.718Z,85.64
2023-01-08T21:16:39.566Z,85.50
2023-01-08T21:19:06.769Z,85.61
2023-01-08T21:21:38.971Z,84.99
2023-01-08T21:24:08.959Z,85.18
2023-01-08T21:26:39.564Z,85.14
2023-01-08T21:29:08.039Z,85.02
2023-01-08T21:31:36.376Z,84.65
2023-01-08T21:34:04.811Z,84.40
2023-01-08T21:36:33.775Z,84.87
2023-01-08T21:39:01.296Z,84.73
2023-01-08T21:41:47.926Z,84.78
2023-01-08T21:44:35.983Z,84.32
2023-01-08T21:47:04.775Z,85.34
2023-01-08T21:49:31.860Z,85.85
2023-01-08T21:52:17.215Z,85.37
2023-01-08T21:54:43.723Z,85.38
2023-01-08T21:57:10.567Z,85.11
2023-01-08T21:59:37.412Z,85.28
2023-01-08T22:02:05.342Z,85.27
2023-01-08T22:04:32.280Z,85.80
2023-01-08T22:06:59.009Z,85.59
2023-01-08T22:09:25.565Z,85.13
2023-01-08T22:11:52.157Z,84.93
2023-01-08T22:14:18.808Z,84.63
2023-01-08T22:16:45.376Z,84.94
2023-01-08T22:19:12.014Z,84.54
2023-01-08T22:21:39.081Z,84.90
2023-01-08T22:24:06.011Z,84.90
2023-01-08T22:26:35.139Z,84.56
2023-01-08T22:29:08.210Z,84.71
2023-01-08T22:31:35.046Z,84.78
2023-01-08T22:34:01.626Z,84.99
2023-01-08T22:36:31.540Z,84.88
2023-01-08T22:38:58.113Z,85.34
2023-01-08T22:41:25.181Z,85.13
2023-01-08T22:43:57.542Z,84.62
2023-01-08T22:46:25.415Z,85.14
2023-01-08T22:48:52.033Z,85.02
2023-01-08T22:51:27.478Z,84.98
2023-01-08T22:53:58.663Z,85.62
2023-01-08T22:56:26.374Z,85.55
2023-01-08T22:58:53.035Z,85.01
2023-01-08T23:01:25.940Z,84.50
2023-01-08T23:03:56.235Z,84.40
2023-01-08T23:06:24.477Z,84.24
2023-01-08T23:08:51.811Z,84.41
2023-01-08T23:11:23.606Z,84.32
2023-01-08T23:13:53.216Z,84.30
2023-01-08T23:16:23.588Z,84.20
2023-01-08T23:18:54.330Z,84.08
2023-01-08T23:21:22.823Z,83.89
2023-01-08T23:23:50.309Z,83.83
2023-01-08T23:26:23.158Z,84.07
2023-01-08T23:28:50.984Z,83.84
2023-01-08T23:31:21.161Z,83.79
2023-01-08T23:33:48.009Z,84.33
2023-01-08T23:36:21.335Z,84.25
2023-01-08T23:38:50.950Z,84.07
2023-01-08T23:41:22.173Z,83.78
2023-01-08T23:43:49.473Z,83.60
2023-01-08T23:46:19.539Z,83.89
2023-01-08T23:48:46.057Z,83.81
2023-01-08T23:51:12.631Z,84.09
2023-01-08T23:53:41.316Z,83.86
2023-01-08T23:56:08.019Z,83.20
2023-01-08T23:58:34.909Z,83.00
